McComb, MS

3:18 PM CST on February 14, 2016 (GMT -0600)
Pinehurst | | Change Station
CLOSE
Current Station
Personal Weather Station
Location: McComb, MS
Elevation: 442 ft
Nearby Weather Stations

Elev 442 ft 31.21 °N, 90.50 °W | Updated 3 minutes ago

Mostly Cloudy
Mostly Cloudy
64.7 °F
Feels Like 64.7 °F
N
2.0
Wind Variable Wind from SSW
Gusts 2.0 mph

Today
High -- | Low -- °F
--% Chance of Precip.
Yesterday
High -- | Low -- °F
Precip. -- in
Pressure 30.06 in
Visibility 10.0 miles
Clouds Scattered Clouds 6000 ft
Mostly Cloudy 7500 ft
Dew Point 50 °F
Humidity 59%
Rainfall 0.00 in
Snow Depth Not available.
6:44 AM 5:47 PM
Waxing Crescent, 45% visible
METAR KMCB 142053Z AUTO 16011G19KT 10SM SCT060 BKN075 19/08 A3006 RMK AO2 SLP177 T01890083 56031
Pressure 30.06 in
Visibility 10.0 miles
Clouds Scattered Clouds 6000 ft
Mostly Cloudy 7500 ft
Dew Point 50 °F
Humidity 59%
Rainfall 0.00 in
Snow Depth Not available.
6:44 AM 5:47 PM
Waxing Crescent, 45% visible
METAR KMCB 142053Z AUTO 16011G19KT 10SM SCT060 BKN075 19/08 A3006 RMK AO2 SLP177 T01890083 56031

10-Day Weather Forecast

Almanac

Astronomy

Feb. 14, 2016 Rise Set
Actual Time
Civil Twilight
Nautical Twilight
Astronomical Twilight
Moon
Length of Visible Light
Length of Day
Tomorrow will be .
, % of the Moon is Illuminated

Today's Extremes

State Highs State Lows

Community

WunderPhotos

Upload Photos

1,892,886 photos uploaded!

WunderBlog® & News

Nearby

Air Quality

  Air Quality AQ Index Pollutant
Not available.

Snow Depth

Station Depth Elevation

Earthquake Activity

City Distance Mag. Time & Date
Minimum magnitude displayed is 2.5.

Coastal Water Temperatures

Place Temperature

Stations

Nearby Weather Stations

Station Location Temp. Windchill Dew Point Humidity Wind Precip. Elev Updated Type
                   

Watches & Warnings

There are currently no watches in effect.